createdAt,value
2023-01-08T00:02:32.484Z,8.15
2023-01-08T00:05:55.514Z,8.11
2023-01-08T00:09:11.690Z,8.06
2023-01-08T00:12:32.480Z,7.78
2023-01-08T00:15:54.515Z,8.01
2023-01-08T00:19:19.543Z,8.13
2023-01-08T00:22:46.535Z,8.07
2023-01-08T00:26:06.367Z,8.05
2023-01-08T00:29:22.623Z,8.03
2023-01-08T00:32:48.672Z,7.99
2023-01-08T00:36:14.633Z,7.94
2023-01-08T00:39:28.757Z,8.02
2023-01-08T00:42:51.373Z,8.11
2023-01-08T00:46:16.513Z,8.01
2023-01-08T00:49:36.437Z,8.02
2023-01-08T00:52:56.297Z,8.15
2023-01-08T00:56:19.381Z,8.16
2023-01-08T00:59:39.446Z,8.21
2023-01-08T01:02:47.527Z,8.03
2023-01-08T01:06:03.459Z,8.15
2023-01-08T01:09:12.462Z,8.16
2023-01-08T01:12:34.106Z,8.24
2023-01-08T01:15:58.062Z,8.26
2023-01-08T01:19:18.168Z,8.20
2023-01-08T01:22:42.354Z,8.17
2023-01-08T01:26:08.940Z,8.31
2023-01-08T01:29:29.355Z,8.13
2023-01-08T01:32:43.110Z,8.18
2023-01-08T01:36:24.395Z,7.96
2023-01-08T01:39:54.139Z,7.90
2023-01-08T01:43:10.970Z,7.78
2023-01-08T01:50:58.664Z,8.14
2023-01-08T01:54:33.435Z,8.28
2023-01-08T01:59:07.052Z,8.25
2023-01-08T02:02:28.612Z,7.72
2023-01-08T02:06:28.245Z,7.86
2023-01-08T02:10:11.531Z,7.77
2023-01-08T02:13:25.707Z,7.66
2023-01-08T02:16:43.180Z,7.35
2023-01-08T02:20:08.958Z,7.40
2023-01-08T02:23:34.308Z,7.60
2023-01-08T02:26:58.716Z,7.56
2023-01-08T02:30:13.412Z,7.46
2023-01-08T02:33:31.373Z,7.43
2023-01-08T02:37:03.264Z,7.35
2023-01-08T02:40:44.412Z,7.45
2023-01-08T02:44:20.051Z,7.34
2023-01-08T02:47:55.883Z,7.36
2023-01-08T02:51:25.492Z,7.49
2023-01-08T02:54:52.647Z,7.45
2023-01-08T02:58:01.138Z,7.27
2023-01-08T03:01:32.517Z,7.48
2023-01-08T03:04:58.788Z,7.51
2023-01-08T03:08:10.904Z,7.58
2023-01-08T03:11:28.655Z,7.47
2023-01-08T03:14:51.931Z,7.46
2023-01-08T03:18:13.883Z,7.65
2023-01-08T03:21:37.733Z,7.66
2023-01-08T03:24:59.843Z,7.71
2023-01-08T03:28:22.332Z,7.82
2023-01-08T03:31:42.891Z,7.75
2023-01-08T03:35:09.919Z,7.53
2023-01-08T03:38:47.081Z,7.44
2023-01-08T03:41:52.096Z,7.19
2023-01-08T03:45:15.749Z,7.36
2023-01-08T03:48:35.363Z,7.46
2023-01-08T03:51:53.901Z,7.33
2023-01-08T03:55:27.504Z,7.16
2023-01-08T03:58:50.869Z,7.14
2023-01-08T04:02:10.473Z,7.10
2023-01-08T04:05:29.403Z,7.10
2023-01-08T04:08:45.909Z,7.17
2023-01-08T04:12:12.836Z,7.25
2023-01-08T04:15:34.701Z,7.28
2023-01-08T04:18:57.747Z,7.17
2023-01-08T04:22:21.976Z,7.26
2023-01-08T04:25:38.674Z,7.36
2023-01-08T04:29:03.789Z,7.41
2023-01-08T04:32:26.761Z,7.21
2023-01-08T04:35:46.254Z,7.30
2023-01-08T04:39:10.744Z,7.17
2023-01-08T04:42:30.893Z,7.20
2023-01-08T04:45:37.199Z,7.25
2023-01-08T04:48:40.919Z,7.39
2023-01-08T04:51:50.480Z,7.46
2023-01-08T04:55:07.180Z,7.34
2023-01-08T04:58:21.026Z,7.35
2023-01-08T05:01:37.082Z,7.62
2023-01-08T05:05:06.121Z,7.70
2023-01-08T05:08:42.338Z,7.69
2023-01-08T05:12:06.611Z,7.39
2023-01-08T05:15:28.355Z,7.34
2023-01-08T05:19:06.859Z,7.30
2023-01-08T05:22:17.469Z,7.17
2023-01-08T05:25:37.653Z,7.26
2023-01-08T05:28:48.515Z,7.28
2023-01-08T05:32:01.292Z,7.36
2023-01-08T05:35:36.589Z,7.70
2023-01-08T05:39:05.419Z,7.48
2023-01-08T05:42:21.922Z,7.32
2023-01-08T05:45:41.726Z,7.28
2023-01-08T05:49:04.517Z,7.13
2023-01-08T05:52:17.584Z,7.06
2023-01-08T05:55:39.344Z,7.12
2023-01-08T05:58:43.818Z,7.37
2023-01-08T06:01:57.450Z,7.30
2023-01-08T06:05:01.826Z,7.29
2023-01-08T06:08:09.978Z,7.52
2023-01-08T06:11:17.141Z,7.65
2023-01-08T06:14:39.847Z,7.54
2023-01-08T06:17:54.605Z,7.41
2023-01-08T06:21:24.171Z,7.51
2023-01-08T06:24:35.355Z,7.53
2023-01-08T06:27:58.676Z,7.52
2023-01-08T06:31:11.734Z,7.46
2023-01-08T06:34:23.299Z,7.43
2023-01-08T06:37:27.415Z,7.39
2023-01-08T06:40:39.136Z,7.25
2023-01-08T06:43:42.264Z,7.23
2023-01-08T06:46:46.782Z,7.12
2023-01-08T06:49:59.571Z,6.91
2023-01-08T06:53:05.868Z,6.75
2023-01-08T06:56:25.444Z,6.98
2023-01-08T07:00:03.547Z,7.01
2023-01-08T07:03:24.607Z,7.01
2023-01-08T07:06:40.971Z,7.13
2023-01-08T07:10:09.529Z,7.07
2023-01-08T07:13:26.808Z,7.00
2023-01-08T07:16:44.257Z,6.92
2023-01-08T07:20:07.621Z,7.00
2023-01-08T07:23:29.935Z,6.97
2023-01-08T07:26:50.500Z,6.83
2023-01-08T07:29:56.205Z,6.96
2023-01-08T07:33:04.260Z,6.81
2023-01-08T07:36:22.702Z,6.87
2023-01-08T07:39:32.331Z,6.87
2023-01-08T07:42:55.357Z,6.96
2023-01-08T07:46:26.298Z,6.94
2023-01-08T07:49:52.306Z,7.10
2023-01-08T07:53:04.901Z,7.07
2023-01-08T07:56:27.314Z,7.34
2023-01-08T07:59:51.465Z,7.12
2023-01-08T08:03:18.214Z,7.09
2023-01-08T08:06:43.197Z,7.18
2023-01-08T08:10:04.143Z,7.04
2023-01-08T08:13:14.257Z,7.19
2023-01-08T08:16:18.418Z,7.29
2023-01-08T08:19:22.090Z,7.04
2023-01-08T08:22:45.193Z,6.88
2023-01-08T08:26:01.317Z,7.02
2023-01-08T08:29:13.165Z,7.04
2023-01-08T08:32:43.281Z,7.03
2023-01-08T08:36:19.404Z,7.00
2023-01-08T08:39:36.653Z,6.97
2023-01-08T08:43:01.082Z,6.99
2023-01-08T08:46:37.264Z,7.08
2023-01-08T08:49:46.831Z,7.08
2023-01-08T08:53:03.798Z,7.35
2023-01-08T08:56:27.059Z,7.33
2023-01-08T09:00:00.959Z,7.41
2023-01-08T09:03:15.066Z,7.41
2023-01-08T09:06:18.152Z,7.41
2023-01-08T09:09:22.110Z,7.34
2023-01-08T09:12:33.237Z,7.23
2023-01-08T09:15:46.020Z,7.20
2023-01-08T09:19:10.213Z,7.06
2023-01-08T09:22:15.347Z,7.08
2023-01-08T09:25:19.495Z,6.97
2023-01-08T09:28:30.892Z,7.02
2023-01-08T09:31:35.084Z,7.02
2023-01-08T09:34:42.346Z,7.26
2023-01-08T09:37:56.497Z,7.38
2023-01-08T09:41:25.909Z,7.32
2023-01-08T09:44:43.485Z,7.34
2023-01-08T09:47:46.673Z,7.40
2023-01-08T09:51:03.329Z,7.23
2023-01-08T09:54:10.077Z,7.43
2023-01-08T09:57:19.639Z,7.35
2023-01-08T10:00:34.146Z,7.44
2023-01-08T10:03:52.117Z,7.50
2023-01-08T10:07:22.792Z,7.54
2023-01-08T10:10:39.185Z,7.70
2023-01-08T10:14:00.983Z,7.72
2023-01-08T10:17:44.337Z,7.77
2023-01-08T10:20:54.649Z,7.88
2023-01-08T10:24:13.153Z,7.93
2023-01-08T10:27:37.867Z,7.94
2023-01-08T10:30:55.815Z,7.94
2023-01-08T10:34:18.842Z,7.96
2023-01-08T10:37:46.946Z,8.12
2023-01-08T10:40:51.073Z,8.23
2023-01-08T10:44:07.749Z,8.42
2023-01-08T10:47:18.747Z,8.56
2023-01-08T10:50:32.543Z,8.47
2023-01-08T10:53:43.960Z,8.45
2023-01-08T10:57:02.377Z,8.74
2023-01-08T11:00:29.463Z,8.51
2023-01-08T11:03:56.039Z,8.67
2023-01-08T11:07:12.642Z,8.59
2023-01-08T11:10:31.898Z,8.47
2023-01-08T11:14:01.436Z,8.45
2023-01-08T11:17:26.644Z,8.46
2023-01-08T11:20:48.358Z,8.75
2023-01-08T11:24:30.477Z,8.71
2023-01-08T11:28:00.799Z,9.11
2023-01-08T11:31:52.152Z,8.94
2023-01-08T11:35:04.795Z,8.96
2023-01-08T11:38:29.046Z,9.16
2023-01-08T11:45:40.811Z,9.43
2023-01-08T11:49:06.372Z,9.30
2023-01-08T11:52:21.547Z,9.29
2023-01-08T11:55:42.622Z,9.62
2023-01-08T11:59:08.263Z,9.28
2023-01-08T12:03:04.264Z,9.35
2023-01-08T12:06:51.906Z,9.79
2023-01-08T12:10:33.965Z,9.60
2023-01-08T12:14:28.395Z,9.65
2023-01-08T12:18:15.921Z,9.43
2023-01-08T12:21:51.847Z,9.75
2023-01-08T12:25:23.419Z,9.92
2023-01-08T12:28:55.217Z,10.47
2023-01-08T12:32:20.955Z,10.09
2023-01-08T12:36:04.294Z,10.22
2023-01-08T12:39:30.635Z,10.35
2023-01-08T12:42:47.213Z,10.52
2023-01-08T12:46:02.600Z,10.52
2023-01-08T12:49:37.579Z,10.47
2023-01-08T12:53:19.392Z,10.44
2023-01-08T12:56:53.563Z,10.45
2023-01-08T13:03:46.285Z,10.32
2023-01-08T13:07:18.907Z,10.27
2023-01-08T13:10:36.082Z,10.12
2023-01-08T13:13:45.577Z,9.77
2023-01-08T13:17:21.724Z,9.97
2023-01-08T13:20:38.821Z,10.03
2023-01-08T13:24:25.259Z,9.94
2023-01-08T13:27:30.145Z,9.70
2023-01-08T13:30:43.480Z,9.54
2023-01-08T13:33:57.676Z,9.64
2023-01-08T13:37:27.367Z,9.88
2023-01-08T13:40:44.165Z,9.70
2023-01-08T13:44:26.763Z,9.45
2023-01-08T13:47:49.951Z,9.57
2023-01-08T13:50:56.134Z,9.63
2023-01-08T13:54:16.297Z,9.77
2023-01-08T13:57:26.079Z,9.70
2023-01-08T14:01:01.119Z,9.66
2023-01-08T14:04:27.534Z,9.61
2023-01-08T14:07:50.812Z,9.42
2023-01-08T14:10:58.415Z,9.39
2023-01-08T14:14:17.492Z,9.31
2023-01-08T14:17:36.569Z,9.14
2023-01-08T14:20:43.701Z,8.97
2023-01-08T14:23:50.350Z,8.84
2023-01-08T14:26:54.923Z,8.78
2023-01-08T14:29:58.925Z,8.60
2023-01-08T14:33:44.453Z,8.49
2023-01-08T14:37:11.125Z,8.36
2023-01-08T14:40:36.346Z,8.39
2023-01-08T14:44:00.140Z,8.29
2023-01-08T14:47:41.619Z,8.30
2023-01-08T14:51:07.971Z,8.21
2023-01-08T14:54:23.394Z,8.23
2023-01-08T14:57:29.338Z,8.33
2023-01-08T15:00:45.299Z,8.27
2023-01-08T15:04:13.422Z,8.25
2023-01-08T15:07:29.108Z,8.11
2023-01-08T15:10:49.339Z,8.31
2023-01-08T15:14:20.299Z,8.24
2023-01-08T15:17:42.329Z,8.30
2023-01-08T15:20:52.667Z,8.36
2023-01-08T15:24:01.445Z,8.26
2023-01-08T15:27:34.133Z,8.33
2023-01-08T15:31:13.717Z,8.31
2023-01-08T15:34:25.015Z,8.31
2023-01-08T15:37:48.183Z,8.37
2023-01-08T15:41:39.270Z,8.38
2023-01-08T15:44:54.198Z,8.28
2023-01-08T15:47:57.366Z,8.36
2023-01-08T15:51:22.813Z,8.43
2023-01-08T15:54:42.355Z,8.48
2023-01-08T15:57:53.318Z,8.60
2023-01-08T16:01:04.442Z,8.59
2023-01-08T16:04:15.273Z,8.44
2023-01-08T16:07:29.772Z,8.19
2023-01-08T16:10:33.740Z,8.45
2023-01-08T16:17:39.764Z,8.53
2023-01-08T16:21:00.513Z,8.67
2023-01-08T16:24:05.098Z,8.58
2023-01-08T16:27:27.972Z,8.72
2023-01-08T16:31:05.027Z,8.70
2023-01-08T16:34:18.901Z,8.66
2023-01-08T16:38:10.831Z,8.68
2023-01-08T16:41:35.679Z,8.56
2023-01-08T16:44:47.067Z,8.55
2023-01-08T16:48:08.248Z,8.44
2023-01-08T16:51:28.840Z,8.62
2023-01-08T16:54:41.730Z,8.51
2023-01-08T16:58:04.856Z,8.57
2023-01-08T17:01:33.947Z,8.63
2023-01-08T17:04:55.866Z,8.69
2023-01-08T17:08:17.001Z,8.64
2023-01-08T17:11:34.820Z,8.64
2023-01-08T17:14:44.874Z,8.56
2023-01-08T17:18:12.896Z,8.72
2023-01-08T17:21:42.860Z,8.76
2023-01-08T17:25:08.040Z,8.68
2023-01-08T17:28:32.736Z,8.49
2023-01-08T17:31:53.799Z,8.63
2023-01-08T17:35:12.777Z,8.67
2023-01-08T17:38:36.112Z,8.50
2023-01-08T17:42:14.843Z,8.51
2023-01-08T17:45:19.307Z,8.57
2023-01-08T17:48:43.890Z,8.67
2023-01-08T17:52:05.807Z,8.61
2023-01-08T17:55:15.754Z,8.66
2023-01-08T17:58:38.950Z,8.58
2023-01-08T18:02:14.966Z,8.64
2023-01-08T18:05:30.077Z,8.68
2023-01-08T18:08:47.973Z,8.57
2023-01-08T18:12:19.907Z,8.62
2023-01-08T18:15:27.887Z,8.61
2023-01-08T18:18:38.860Z,8.72
2023-01-08T18:21:53.621Z,8.80
2023-01-08T18:25:01.071Z,8.58
2023-01-08T18:28:22.286Z,8.83
2023-01-08T18:31:45.882Z,8.71
2023-01-08T18:35:09.611Z,8.92
2023-01-08T18:38:23.553Z,8.98
2023-01-08T18:42:29.021Z,8.85
2023-01-08T18:45:49.160Z,8.86
2023-01-08T18:49:02.886Z,8.82
2023-01-08T18:52:16.957Z,8.90
2023-01-08T18:55:25.420Z,9.00
2023-01-08T18:58:46.421Z,9.01
2023-01-08T19:02:03.630Z,8.91
2023-01-08T19:05:25.397Z,8.82
2023-01-08T19:08:47.446Z,8.61
2023-01-08T19:12:03.834Z,8.89
2023-01-08T19:15:32.476Z,8.69
2023-01-08T19:18:57.804Z,8.99
2023-01-08T19:22:34.559Z,9.08
2023-01-08T19:25:42.546Z,8.93
2023-01-08T19:29:04.177Z,8.90
2023-01-08T19:32:26.699Z,8.83
2023-01-08T19:35:44.870Z,9.07
2023-01-08T19:39:07.860Z,9.12
2023-01-08T19:42:34.459Z,9.05
2023-01-08T19:45:43.599Z,9.05
2023-01-08T19:49:13.620Z,9.08
2023-01-08T19:52:41.513Z,9.08
2023-01-08T19:56:04.636Z,9.14
2023-01-08T19:59:23.577Z,9.05
2023-01-08T20:02:53.466Z,9.11
2023-01-08T20:06:19.986Z,9.14
2023-01-08T20:09:33.541Z,9.12
2023-01-08T20:12:48.763Z,9.09
2023-01-08T20:16:11.888Z,9.15
2023-01-08T20:19:38.381Z,9.10
2023-01-08T20:22:58.641Z,9.12
2023-01-08T20:26:23.539Z,9.14
2023-01-08T20:29:39.619Z,9.00
2023-01-08T20:33:03.395Z,9.04
2023-01-08T20:36:39.776Z,9.02
2023-01-08T20:39:47.923Z,9.03
2023-01-08T20:43:05.419Z,8.86
2023-01-08T20:46:32.600Z,8.86
2023-01-08T20:49:48.019Z,8.88
2023-01-08T20:53:11.501Z,8.86
2023-01-08T20:56:26.581Z,8.94
2023-01-08T20:59:30.786Z,9.00
2023-01-08T21:02:44.122Z,8.89
2023-01-08T21:06:06.081Z,8.83
2023-01-08T21:09:29.099Z,8.70
2023-01-08T21:12:47.073Z,8.56
2023-01-08T21:15:50.261Z,8.44
2023-01-08T21:19:28.259Z,8.38
2023-01-08T21:22:54.164Z,8.29
2023-01-08T21:26:23.695Z,8.23
2023-01-08T21:29:31.242Z,8.24
2023-01-08T21:32:38.474Z,8.34
2023-01-08T21:35:44.422Z,8.56
2023-01-08T21:38:58.777Z,8.73
2023-01-08T21:42:21.995Z,8.86
2023-01-08T21:46:02.955Z,8.95
2023-01-08T21:49:16.934Z,8.98
2023-01-08T21:52:41.213Z,9.14
2023-01-08T21:55:52.224Z,9.29
2023-01-08T21:59:15.340Z,9.41
2023-01-08T22:02:33.081Z,9.46
2023-01-08T22:06:16.136Z,9.50
2023-01-08T22:09:53.261Z,9.39
2023-01-08T22:13:30.330Z,9.39
2023-01-08T22:16:53.115Z,9.39
2023-01-08T22:20:10.140Z,9.40
2023-01-08T22:23:33.169Z,9.41
2023-01-08T22:26:58.334Z,9.23
2023-01-08T22:30:14.282Z,9.15
2023-01-08T22:33:38.244Z,9.22
2023-01-08T22:37:26.318Z,9.24
2023-01-08T22:40:31.002Z,9.04
2023-01-08T22:43:44.255Z,9.10
2023-01-08T22:46:47.262Z,9.03
2023-01-08T22:49:53.753Z,9.10
2023-01-08T22:53:11.003Z,9.17
2023-01-08T22:56:23.851Z,9.03
2023-01-08T22:59:44.514Z,9.00
2023-01-08T23:03:11.115Z,9.00
2023-01-08T23:10:22.970Z,9.07
2023-01-08T23:13:30.238Z,8.93
2023-01-08T23:16:53.063Z,8.97
2023-01-08T23:20:20.204Z,8.98
2023-01-08T23:23:39.978Z,8.99
2023-01-08T23:27:05.810Z,8.88
2023-01-08T23:30:19.953Z,8.86
2023-01-08T23:33:39.094Z,8.91
2023-01-08T23:36:53.960Z,8.81
2023-01-08T23:40:20.964Z,8.72
2023-01-08T23:43:54.031Z,8.68
2023-01-08T23:47:03.376Z,8.72
2023-01-08T23:50:23.087Z,8.75
2023-01-08T23:53:58.302Z,8.76
2023-01-08T23:57:18.816Z,8.80
